Time;durP1;ratioP1;P1;durP2;ratioP2;P2;SDS_P1;SDS_P2;PMS_P1;PMS_P2;Temp;Humidity;BMP_temperature;BMP_pressure;BME280_temperature;BME280_humidity;BME280_pressure;Samples;Min_cycle;Max_cycle;Signal;HPM_P1;HPM_P2
2022/01/30 00:00:53;;;;;;;0.83;0.73;;;9.70;1.00;;;;;;4973133;28;20499;-70
2022/01/30 00:03:21;;;;;;;0.60;0.20;;;9.70;1.00;;;;;;4973286;28;20859;-70
2022/01/30 00:05:49;;;;;;;10.83;2.10;;;9.70;1.00;;;;;;4983962;28;20480;-70
2022/01/30 00:08:17;;;;;;;10.30;0.90;;;9.70;1.00;;;;;;5012358;28;20538;-70
2022/01/30 00:10:46;;;;;;;0.60;0.30;;;9.60;1.00;;;;;;5011599;28;20475;-70
2022/01/30 00:13:18;;;;;;;0.80;0.63;;;;;;;;;;5012043;28;20452;-71
2022/01/30 00:15:49;;;;;;;2.40;0.40;;;9.60;1.00;;;;;;5011937;28;20818;-70
2022/01/30 00:18:32;;;;;;;3.07;0.80;;;9.60;1.00;;;;;;5012190;28;20484;-71
2022/01/30 00:21:07;;;;;;;0.70;0.37;;;9.60;1.00;;;;;;5011731;28;20470;-69
2022/01/30 00:23:41;;;;;;;1.53;1.43;;;;;;;;;;5011182;28;20822;-71
2022/01/30 00:26:10;;;;;;;0.97;0.30;;;9.60;1.00;;;;;;5011714;28;20902;-70
2022/01/30 00:28:40;;;;;;;7.10;1.80;;;12.10;1.00;;;;;;5011194;28;20444;-69
2022/01/30 00:31:08;;;;;;;0.60;0.30;;;9.70;1.00;;;;;;5011559;28;20962;-70
2022/01/30 00:33:36;;;;;;;16.80;1.07;;;9.60;1.00;;;;;;4997999;28;20464;-71
2022/01/30 00:36:05;;;;;;;2.77;2.00;;;10.50;1.00;;;;;;4995630;28;20452;-71
2022/01/30 00:38:33;;;;;;;0.60;0.10;;;9.70;1.00;;;;;;4997377;28;20622;-71
2022/01/30 00:41:01;;;;;;;0.50;0.10;;;9.80;1.00;;;;;;5002650;28;20508;-70
2022/01/30 00:43:29;;;;;;;1.00;0.47;;;9.80;1.00;;;;;;5000531;28;20462;-72
2022/01/30 00:45:58;;;;;;;1.10;0.77;;;9.80;1.00;;;;;;5002621;28;20986;-72
2022/01/30 00:48:26;;;;;;;1.23;1.13;;;9.80;1.00;;;;;;5007045;28;20540;-70
2022/01/30 00:50:55;;;;;;;1.90;1.27;;;9.80;1.00;;;;;;5010942;28;20768;-71
2022/01/30 00:53:23;;;;;;;0.90;0.30;;;9.70;1.00;;;;;;5002309;28;20435;-72
2022/01/30 00:55:50;;;;;;;0.60;0.20;;;9.60;1.00;;;;;;5004752;28;20444;-69
2022/01/30 00:58:18;;;;;;;1.17;1.13;;;9.60;1.00;;;;;;5014667;28;20981;-69
2022/01/30 01:00:46;;;;;;;0.60;0.20;;;9.60;1.00;;;;;;5015389;28;20465;-69
2022/01/30 01:03:17;;;;;;;6.53;1.57;;;9.70;1.00;;;;;;5016919;28;20502;-70
2022/01/30 01:05:45;;;;;;;2.30;1.33;;;9.60;1.00;;;;;;5010581;28;21120;-69
2022/01/30 01:08:18;;;;;;;0.70;0.47;;;9.70;1.00;;;;;;5007053;28;20467;-71
2022/01/30 01:10:50;;;;;;;0.60;0.10;;;9.70;1.00;;;;;;5014647;28;20463;-72
2022/01/30 01:13:44;;;;;;;0.60;0.10;;;9.70;1.00;;;;;;5014293;28;20458;-71
2022/01/30 01:24:31;;;;;;;0.90;0.77;;;9.70;1.00;;;;;;5015141;28;20854;-69
2022/01/30 01:26:59;;;;;;;1.63;1.53;;;9.70;1.00;;;;;;4981248;28;20445;-70
2022/01/30 01:29:27;;;;;;;12.63;1.60;;;9.60;1.00;;;;;;4984360;28;20472;-71
2022/01/30 01:31:55;;;;;;;0.93;0.83;;;9.50;1.00;;;;;;5013999;28;20539;-71
2022/01/30 01:34:33;;;;;;;0.80;0.43;;;9.50;1.00;;;;;;5014193;28;20936;-70
2022/01/30 01:37:01;;;;;;;3.53;1.50;;;9.40;1.00;;;;;;5014269;28;20485;-69
2022/01/30 01:39:30;;;;;;;0.60;0.30;;;9.30;1.00;;;;;;5014257;28;20464;-69
2022/01/30 01:41:58;;;;;;;1.03;0.83;;;9.30;1.00;;;;;;5006187;28;20443;-70
2022/01/30 01:44:33;;;;;;;0.60;0.30;;;9.30;1.00;;;;;;5006775;28;20543;-70
2022/01/30 01:47:02;;;;;;;0.60;0.30;;;9.30;1.00;;;;;;5013766;28;20449;-69
2022/01/30 01:49:33;;;;;;;1.60;0.50;;;9.20;1.00;;;;;;5014296;28;20471;-69
2022/01/30 01:52:18;;;;;;;1.73;1.03;;;9.20;1.00;;;;;;5004616;28;20536;-70
2022/01/30 01:54:47;;;;;;;0.60;0.20;;;9.30;1.00;;;;;;4994141;28;20491;-69
2022/01/30 01:57:15;;;;;;;0.60;0.10;;;9.40;1.00;;;;;;4995438;28;20508;-70
2022/01/30 01:59:43;;;;;;;0.60;0.30;;;9.30;1.00;;;;;;5011545;28;20480;-70
2022/01/30 02:02:11;;;;;;;0.90;0.80;;;;;;;;;;5013908;28;20461;-70
2022/01/30 02:04:42;;;;;;;0.60;0.30;;;9.30;1.00;;;;;;5009400;28;20463;-70
2022/01/30 02:07:37;;;;;;;0.60;0.10;;;9.40;1.00;;;;;;4993367;28;20445;-71
2022/01/30 02:10:11;;;;;;;0.80;0.60;;;9.50;1.00;;;;;;4973550;28;20465;-70
2022/01/30 02:12:47;;;;;;;1.53;0.30;;;9.50;1.00;;;;;;4974169;28;20450;-68
2022/01/30 02:15:33;;;;;;;4.00;0.70;;;9.50;1.00;;;;;;4974519;28;20954;-70
2022/01/30 02:26:18;;;;;;;0.90;0.20;;;9.50;1.00;;;;;;5013212;28;20460;-70
2022/01/30 02:28:46;;;;;;;7.80;1.90;;;9.40;1.00;;;;;;5013521;28;20467;-71
2022/01/30 02:31:19;;;;;;;3.13;2.10;;;9.40;1.00;;;;;;5013280;28;20962;-70
2022/01/30 02:33:47;;;;;;;1.27;0.37;;;9.30;1.00;;;;;;5013538;28;20443;-70
2022/01/30 02:36:15;;;;;;;3.17;0.87;;;9.30;1.00;;;;;;5012946;28;20451;-70
2022/01/30 02:38:44;;;;;;;3.33;0.40;;;9.20;1.00;;;;;;5012942;28;20576;-71
2022/01/30 02:41:12;;;;;;;0.60;0.20;;;9.20;1.00;;;;;;5013473;28;20444;-70
2022/01/30 02:43:53;;;;;;;1.63;1.30;;;9.20;1.00;;;;;;5013469;28;20461;-70
2022/01/30 02:46:27;;;;;;;0.60;0.10;;;9.10;1.00;;;;;;5013098;28;20448;-71
2022/01/30 02:48:58;;;;;;;0.60;0.10;;;9.10;1.00;;;;;;5012754;28;20446;-70
2022/01/30 02:51:33;;;;;;;0.70;0.10;;;9.10;1.00;;;;;;5012864;28;20455;-70
2022/01/30 02:54:05;;;;;;;0.70;0.20;;;9.10;1.00;;;;;;5012904;28;20474;-72
2022/01/30 02:56:34;;;;;;;3.83;0.93;;;9.10;1.00;;;;;;5012428;28;20992;-70
2022/01/30 02:59:02;;;;;;;0.70;0.10;;;9.10;1.00;;;;;;5012491;28;20472;-70
2022/01/30 03:01:30;;;;;;;0.70;0.10;;;9.10;1.00;;;;;;5012683;28;20448;-69
2022/01/30 03:03:58;;;;;;;2.60;0.93;;;9.00;1.00;;;;;;5012922;28;20444;-70
2022/01/30 03:06:26;;;;;;;8.83;1.37;;;9.00;1.00;;;;;;5012305;28;20455;-71
2022/01/30 03:08:54;;;;;;;0.70;0.20;;;8.90;1.00;;;;;;5012616;28;20444;-70
2022/01/30 03:11:24;;;;;;;3.33;0.70;;;8.90;1.00;;;;;;5012469;28;20478;-70
2022/01/30 03:13:52;;;;;;;18.97;1.87;;;8.80;1.00;;;;;;5013083;28;20436;-69
2022/01/30 03:16:21;;;;;;;1.13;0.87;;;8.90;1.00;;;;;;5012401;28;20810;-70
2022/01/30 03:18:49;;;;;;;2.30;1.23;;;8.90;1.00;;;;;;5012165;28;20985;-70
2022/01/30 03:21:17;;;;;;;0.70;0.10;;;8.80;1.00;;;;;;5012515;28;20456;-71
2022/01/30 03:23:45;;;;;;;0.60;0.10;;;8.90;1.00;;;;;;5012670;28;20444;-70
2022/01/30 03:26:14;;;;;;;1.73;0.93;;;8.80;1.00;;;;;;5012426;28;20470;-69
2022/01/30 03:28:45;;;;;;;1.43;0.47;;;8.60;1.00;;;;;;5012631;28;20788;-70
2022/01/30 03:31:14;;;;;;;2.10;0.83;;;8.60;1.00;;;;;;5012348;28;20462;-70
2022/01/30 03:33:42;;;;;;;1.30;0.63;;;8.60;1.00;;;;;;5012332;28;20447;-70
2022/01/30 03:36:10;;;;;;;1.07;0.57;;;8.60;1.00;;;;;;5012265;28;20455;-70
2022/01/30 03:38:38;;;;;;;0.60;0.10;;;8.60;1.00;;;;;;5012135;28;20985;-71
2022/01/30 03:41:05;;;;;;;0.70;0.10;;;8.50;1.00;;;;;;5012823;28;20467;-70
2022/01/30 03:43:33;;;;;;;1.70;1.53;;;8.60;1.00;;;;;;5012558;28;20543;-70
2022/01/30 03:46:02;;;;;;;2.37;2.17;;;8.70;1.00;;;;;;5012222;28;20463;-70
2022/01/30 03:48:30;;;;;;;2.93;1.07;;;8.60;1.00;;;;;;5012267;28;20447;-70
2022/01/30 03:50:58;;;;;;;3.63;2.20;;;8.60;1.00;;;;;;5012937;28;20835;-70
2022/01/30 03:53:26;;;;;;;0.60;0.10;;;8.50;1.00;;;;;;5012327;28;20441;-70
2022/01/30 03:55:54;;;;;;;0.60;0.10;;;8.50;1.00;;;;;;5012400;28;20481;-70
2022/01/30 03:58:22;;;;;;;1.37;0.50;;;8.40;1.00;;;;;;5011705;28;20485;-70
2022/01/30 04:00:49;;;;;;;0.70;0.40;;;8.50;1.00;;;;;;5012266;28;20463;-71
2022/01/30 04:03:19;;;;;;;1.07;0.57;;;8.40;1.00;;;;;;5012107;28;20455;-69
2022/01/30 04:05:47;;;;;;;0.60;0.20;;;8.30;1.00;;;;;;4993297;28;20538;-70
2022/01/30 04:08:15;;;;;;;7.73;2.53;;;8.40;1.00;;;;;;4993057;28;20551;-70
2022/01/30 04:10:44;;;;;;;1.23;1.13;;;8.30;99.90;;;;;;4995255;28;20555;-69
2022/01/30 04:13:12;;;;;;;1.27;0.43;;;8.30;99.90;;;;;;4996154;28;20467;-70
2022/01/30 04:15:40;;;;;;;1.63;0.77;;;8.30;99.90;;;;;;4996440;28;20456;-70
2022/01/30 04:18:09;;;;;;;2.23;1.23;;;8.20;1.00;;;;;;5013874;28;20450;-70
2022/01/30 04:20:38;;;;;;;0.60;0.10;;;8.20;99.90;;;;;;5016178;28;20486;-70
2022/01/30 04:23:06;;;;;;;4.93;1.13;;;8.10;99.90;;;;;;5015965;28;20938;-69
2022/01/30 04:25:35;;;;;;;0.60;0.10;;;8.20;1.00;;;;;;5015724;28;20455;-70
2022/01/30 04:28:03;;;;;;;3.03;0.50;;;8.20;99.90;;;;;;5015746;28;20454;-70
2022/01/30 04:30:31;;;;;;;0.70;0.47;;;8.20;99.90;;;;;;5015365;28;20481;-71
2022/01/30 04:33:00;;;;;;;3.60;0.90;;;8.20;99.90;;;;;;5015534;28;20478;-70
2022/01/30 04:35:30;;;;;;;1.07;0.50;;;8.20;99.90;;;;;;5015467;28;20454;-70
2022/01/30 04:38:09;;;;;;;0.60;0.10;;;8.20;99.90;;;;;;5015893;28;20542;-70
2022/01/30 04:41:07;;;;;;;5.30;1.03;;;8.20;99.90;;;;;;5015280;28;20494;-70
2022/01/30 04:52:17;;;;;;;0.60;0.10;;;8.00;99.90;;;;;;5015112;28;20444;-71
2022/01/30 04:57:46;;;;;;;0.60;0.10;;;8.00;1.00;;;;;;5003066;28;20451;-70
2022/01/30 05:03:22;;;;;;;0.60;0.10;;;8.00;1.00;;;;;;5013062;28;20521;-69
2022/01/30 05:05:59;;;;;;;1.27;1.17;;;8.00;99.90;;;;;;5014736;28;20897;-70
2022/01/30 05:08:28;;;;;;;0.60;0.10;;;8.00;1.00;;;;;;5014641;28;20454;-69
2022/01/30 05:10:57;;;;;;;0.60;0.10;;;7.90;1.00;;;;;;5014492;28;20815;-70
2022/01/30 05:13:29;;;;;;;0.80;0.30;;;7.90;1.00;;;;;;5015046;28;20452;-70
2022/01/30 05:15:57;;;;;;;11.33;2.33;;;7.90;1.00;;;;;;5014386;28;20462;-70
2022/01/30 05:18:27;;;;;;;0.60;0.10;;;7.90;1.00;;;;;;5014607;28;20526;-70
2022/01/30 05:20:55;;;;;;;0.60;0.20;;;7.90;1.00;;;;;;5013958;28;20514;-70
2022/01/30 05:23:24;;;;;;;0.67;0.30;;;7.90;1.00;;;;;;5014749;28;20455;-69
2022/01/30 05:25:53;;;;;;;0.60;0.20;;;7.90;1.00;;;;;;5014395;28;20458;-69
2022/01/30 05:28:24;;;;;;;0.60;0.10;;;7.80;1.00;;;;;;5014344;28;20451;-71
2022/01/30 05:30:53;;;;;;;0.60;0.10;;;7.90;1.00;;;;;;5043334;22;20521;-75
2022/01/30 05:33:21;;;;;;;0.70;0.40;;;7.90;1.00;;;;;;5021174;28;20511;-75
2022/01/30 05:35:49;;;;;;;1.37;0.70;;;7.80;1.00;;;;;;5021915;28;20448;-74
2022/01/30 05:38:19;;;;;;;19.33;9.30;;;7.80;1.00;;;;;;5022699;28;20451;-74
2022/01/30 05:40:47;;;;;;;8.13;1.03;;;7.70;1.00;;;;;;5020374;28;20490;-76
2022/01/30 05:43:15;;;;;;;0.60;0.20;;;7.70;1.00;;;;;;5027987;28;20457;-75
2022/01/30 05:45:50;;;;;;;0.60;0.10;;;7.70;1.00;;;;;;5018587;28;20443;-73
2022/01/30 05:48:18;;;;;;;10.43;4.20;;;7.70;1.00;;;;;;5015589;28;20497;-75
2022/01/30 05:50:47;;;;;;;0.60;0.17;;;7.60;1.00;;;;;;4976499;28;21003;-75
2022/01/30 05:53:15;;;;;;;19.93;1.27;;;7.60;1.00;;;;;;4981649;28;20466;-75
2022/01/30 05:55:42;;;;;;;0.60;0.17;;;7.70;1.00;;;;;;5014692;28;20447;-75
2022/01/30 05:58:10;;;;;;;0.60;0.10;;;7.70;1.00;;;;;;5014475;28;20439;-75
2022/01/30 06:00:38;;;;;;;0.60;0.10;;;7.70;1.00;;;;;;5013970;28;20526;-74
2022/01/30 06:03:07;;;;;;;0.97;0.30;;;7.70;1.00;;;;;;5015118;28;20811;-75
2022/01/30 06:05:35;;;;;;;2.20;0.83;;;7.70;1.00;;;;;;4996835;28;20470;-75
2022/01/30 06:08:12;;;;;;;0.60;0.20;;;7.70;1.00;;;;;;4995064;28;20452;-75
2022/01/30 06:10:39;;;;;;;0.60;0.10;;;7.70;1.00;;;;;;4993658;28;20517;-76
2022/01/30 06:13:07;;;;;;;0.60;0.20;;;7.70;1.00;;;;;;4994792;28;20447;-74
2022/01/30 06:15:35;;;;;;;0.60;0.10;;;7.70;1.00;;;;;;5012786;28;20461;-75
2022/01/30 06:18:03;;;;;;;0.60;0.10;;;7.70;1.00;;;;;;5014626;28;20946;-75
2022/01/30 06:20:32;;;;;;;0.60;0.20;;;7.80;1.00;;;;;;5014286;28;20483;-75
2022/01/30 06:23:00;;;;;;;0.70;0.63;;;7.70;1.00;;;;;;5020989;28;20447;-75
2022/01/30 06:25:28;;;;;;;1.07;0.73;;;7.70;1.00;;;;;;5017470;28;20520;-74
2022/01/30 06:27:56;;;;;;;1.30;0.57;;;7.70;1.00;;;;;;5014396;28;20543;-76
2022/01/30 06:30:24;;;;;;;1.80;0.53;;;7.70;1.00;;;;;;5013982;28;20539;-76
2022/01/30 06:32:52;;;;;;;0.60;0.17;;;7.70;1.00;;;;;;5014093;28;20440;-76
2022/01/30 06:35:20;;;;;;;0.60;0.10;;;7.70;1.00;;;;;;5025618;28;20489;-76
2022/01/30 06:37:49;;;;;;;3.53;1.80;;;7.60;1.00;;;;;;5025512;28;20444;-75
2022/01/30 06:40:17;;;;;;;0.60;0.10;;;7.60;1.00;;;;;;5015504;28;20589;-77
2022/01/30 06:42:45;;;;;;;0.60;0.10;;;7.60;1.00;;;;;;5020092;28;20545;-76
2022/01/30 06:45:13;;;;;;;0.60;0.10;;;7.60;1.00;;;;;;5023445;28;20439;-76
2022/01/30 06:47:41;;;;;;;0.60;0.10;;;7.70;1.00;;;;;;5015636;28;20462;-77
2022/01/30 06:50:10;;;;;;;0.60;0.10;;;7.70;1.00;;;;;;5014556;28;20545;-75
2022/01/30 06:52:38;;;;;;;3.57;1.53;;;7.70;1.00;;;;;;5014931;28;20479;-76
2022/01/30 06:55:08;;;;;;;0.67;0.27;;;7.60;1.00;;;;;;5014249;28;20825;-76
2022/01/30 06:57:43;;;;;;;5.13;0.77;;;7.50;1.00;;;;;;5014653;28;20478;-76
2022/01/30 07:00:12;;;;;;;11.10;1.13;;;7.50;1.00;;;;;;5017563;28;20500;-76
2022/01/30 07:02:39;;;;;;;0.93;0.30;;;7.50;1.00;;;;;;5010487;28;20451;-75
2022/01/30 07:05:08;;;;;;;1.80;0.87;;;7.40;1.00;;;;;;5012780;28;20451;-74
2022/01/30 07:07:36;;;;;;;5.33;1.23;;;7.40;1.00;;;;;;5000451;28;20435;-74
2022/01/30 07:10:08;;;;;;;1.73;1.63;;;7.40;1.00;;;;;;4993456;28;20986;-76
2022/01/30 07:12:35;;;;;;;2.43;1.20;;;7.30;1.00;;;;;;4990972;28;20442;-76
2022/01/30 07:15:04;;;;;;;0.90;0.20;;;7.20;1.00;;;;;;4996825;28;20448;-75
2022/01/30 07:17:32;;;;;;;11.90;3.90;;;7.20;1.00;;;;;;4995039;28;20551;-75
2022/01/30 07:19:59;;;;;;;3.90;0.53;;;7.10;1.00;;;;;;4994694;28;20492;-75
2022/01/30 07:22:28;;;;;;;2.53;0.20;;;7.10;1.00;;;;;;4994063;28;20444;-76
2022/01/30 07:24:56;;;;;;;4.33;0.20;;;7.10;1.00;;;;;;4991896;28;20901;-76
2022/01/30 07:27:25;;;;;;;20.23;1.37;;;7.10;1.00;;;;;;4994261;28;20540;-75
2022/01/30 07:29:53;;;;;;;13.83;2.30;;;7.20;1.00;;;;;;4993864;28;20472;-75
2022/01/30 07:32:26;;;;;;;15.20;0.30;;;7.20;1.00;;;;;;4994297;28;20870;-75
2022/01/30 07:34:54;;;;;;;40.03;1.70;;;7.20;1.00;;;;;;4996786;28;20465;-74
2022/01/30 07:37:23;;;;;;;49.20;38.37;;;7.20;1.00;;;;;;4994124;28;20456;-75
2022/01/30 07:39:52;;;;;;;30.70;0.40;;;7.20;1.00;;;;;;4993991;28;20461;-73
2022/01/30 07:42:21;;;;;;;140.63;129.17;;;7.00;1.00;;;;;;4994180;28;20459;-76
2022/01/30 07:44:50;;;;;;;71.33;49.60;;;7.00;1.00;;;;;;4997442;28;20478;-76
2022/01/30 07:47:18;;;;;;;49.03;2.10;;;7.00;1.00;;;;;;4992729;28;20889;-75
2022/01/30 07:49:51;;;;;;;82.83;59.93;;;6.90;1.00;;;;;;5000318;28;20475;-76
2022/01/30 07:52:20;;;;;;;50.20;5.03;;;6.90;1.00;;;;;;5013836;28;20433;-76
2022/01/30 07:54:47;;;;;;;293.03;270.40;;;6.90;1.00;;;;;;5013604;28;20802;-74
2022/01/30 07:57:17;;;;;;;119.43;108.57;;;6.90;1.00;;;;;;5014169;28;20511;-75
2022/01/30 07:59:44;;;;;;;47.97;1.23;;;6.90;1.00;;;;;;5015959;28;21000;-75
2022/01/30 08:02:14;;;;;;;46.73;0.90;;;6.90;1.00;;;;;;5015801;28;20489;-76
2022/01/30 08:04:43;;;;;;;48.67;0.70;;;6.90;1.00;;;;;;5013218;28;20485;-75
2022/01/30 08:07:10;;;;;;;47.67;2.30;;;6.90;1.00;;;;;;5009419;28;20462;-75
2022/01/30 08:09:38;;;;;;;65.07;11.37;;;7.00;1.00;;;;;;4992885;28;20465;-76
2022/01/30 08:12:07;;;;;;;48.73;0.87;;;7.00;1.00;;;;;;4994685;28;20454;-76
2022/01/30 08:14:35;;;;;;;48.50;4.03;;;7.00;1.00;;;;;;4993595;28;20942;-75
2022/01/30 08:17:03;;;;;;;52.03;3.90;;;7.00;1.00;;;;;;4993504;28;20458;-75
2022/01/30 08:19:34;;;;;;;106.90;95.53;;;7.10;1.00;;;;;;4992765;28;20464;-73
2022/01/30 08:22:07;;;;;;;59.00;8.27;;;7.10;1.00;;;;;;4993568;28;20516;-76
2022/01/30 08:24:35;;;;;;;46.07;0.60;;;7.00;1.00;;;;;;5011154;28;20478;-76
2022/01/30 08:27:03;;;;;;;53.90;21.07;;;7.00;1.00;;;;;;5014671;28;20769;-76
2022/01/30 08:29:31;;;;;;;61.73;28.40;;;7.00;1.00;;;;;;5013426;28;20991;-76
2022/01/30 08:31:59;;;;;;;51.90;13.70;;;7.00;1.00;;;;;;5013000;28;20445;-75
2022/01/30 08:34:27;;;;;;;44.43;2.97;;;7.00;1.00;;;;;;5012707;28;20450;-76
2022/01/30 08:36:57;;;;;;;46.43;0.60;;;7.00;1.00;;;;;;5013096;28;20534;-74
2022/01/30 08:39:25;;;;;;;45.70;3.80;;;7.00;1.00;;;;;;5013133;28;20471;-76
2022/01/30 08:41:52;;;;;;;59.53;51.90;;;7.10;1.00;;;;;;5012466;28;20552;-76
2022/01/30 08:44:20;;;;;;;38.50;1.00;;;7.00;1.00;;;;;;5012274;28;20455;-76
2022/01/30 08:46:48;;;;;;;25.67;0.40;;;7.00;1.00;;;;;;5012756;28;20452;-75
2022/01/30 08:49:16;;;;;;;39.73;7.00;;;7.00;1.00;;;;;;5012835;28;20460;-76
2022/01/30 08:51:44;;;;;;;51.80;33.23;;;7.00;1.00;;;;;;5001289;28;20827;-76
2022/01/30 08:54:13;;;;;;;87.53;80.77;;;7.10;1.00;;;;;;4993268;28;20461;-76
2022/01/30 08:56:41;;;;;;;66.60;60.10;;;7.00;1.00;;;;;;4996870;28;20457;-76
2022/01/30 08:59:09;;;;;;;22.60;13.13;;;7.00;1.00;;;;;;5008187;28;20546;-76
2022/01/30 09:01:37;;;;;;;16.83;2.73;;;7.00;1.00;;;;;;5026245;28;20506;-76
2022/01/30 09:04:05;;;;;;;282.17;264.87;;;7.00;1.00;;;;;;5003959;28;20443;-75
2022/01/30 09:06:36;;;;;;;8.60;0.47;;;7.00;1.00;;;;;;4996351;28;21010;-76
2022/01/30 09:09:05;;;;;;;21.97;19.70;;;7.00;1.00;;;;;;4993236;28;20847;-76
2022/01/30 09:11:36;;;;;;;3.60;1.37;;;7.00;1.00;;;;;;4994091;28;20492;-73
2022/01/30 09:14:04;;;;;;;1.60;0.20;;;7.00;1.00;;;;;;4995290;28;20475;-73
2022/01/30 09:16:32;;;;;;;1.30;0.20;;;7.00;1.00;;;;;;5011386;28;20957;-74
2022/01/30 09:19:00;;;;;;;4.53;1.63;;;7.00;1.00;;;;;;5004966;28;20454;-74
2022/01/30 09:21:28;;;;;;;32.27;29.90;;;7.10;1.00;;;;;;4997098;28;20487;-74
2022/01/30 09:23:57;;;;;;;2.80;0.53;;;8.50;1.00;;;;;;4997858;28;20442;-74
2022/01/30 09:26:25;;;;;;;0.80;0.13;;;7.20;1.00;;;;;;4998958;28;20454;-74
2022/01/30 09:28:54;;;;;;;6.17;5.83;;;7.30;1.00;;;;;;4997478;28;21017;-74
2022/01/30 09:31:22;;;;;;;1.77;0.83;;;7.50;1.00;;;;;;4996070;28;20480;-73
2022/01/30 09:33:50;;;;;;;0.70;0.40;;;7.50;1.00;;;;;;4997898;28;20456;-74
2022/01/30 09:36:17;;;;;;;0.60;0.20;;;7.40;1.00;;;;;;5007809;28;20445;-74
2022/01/30 09:38:45;;;;;;;4.40;3.60;;;7.50;1.00;;;;;;4997360;28;20452;-76
2022/01/30 09:41:15;;;;;;;0.70;0.23;;;7.40;1.00;;;;;;5001990;28;20658;-74
2022/01/30 09:43:45;;;;;;;1.00;0.60;;;7.40;1.00;;;;;;4999661;28;20460;-75
2022/01/30 09:46:16;;;;;;;0.60;0.10;;;7.40;1.00;;;;;;4998301;28;20438;-75
2022/01/30 09:48:45;;;;;;;0.90;0.40;;;7.50;1.00;;;;;;4996798;28;20887;-73
2022/01/30 09:51:13;;;;;;;0.90;0.40;;;7.50;1.00;;;;;;4995017;28;20856;-73
2022/01/30 09:53:41;;;;;;;8.63;1.30;;;7.60;99.90;;;;;;4994902;28;20825;-74
2022/01/30 09:56:09;;;;;;;2.50;1.10;;;7.60;99.90;;;;;;4994551;28;20452;-75
2022/01/30 09:58:37;;;;;;;8.33;1.23;;;7.60;99.90;;;;;;4998149;28;20459;-74
2022/01/30 10:01:04;;;;;;;0.80;0.20;;;7.60;99.90;;;;;;5005569;28;20840;-74
2022/01/30 10:03:34;;;;;;;13.67;1.67;;;7.50;99.90;;;;;;4995405;28;20490;-74
2022/01/30 10:06:08;;;;;;;0.60;0.20;;;7.60;99.90;;;;;;4993665;28;20535;-75
2022/01/30 10:08:42;;;;;;;0.60;0.10;;;7.60;99.90;;;;;;4994645;28;20455;-75
2022/01/30 10:11:28;;;;;;;0.80;0.43;;;7.60;99.90;;;;;;4995441;28;20550;-75
2022/01/30 10:14:04;;;;;;;1.47;0.43;;;7.60;99.90;;;;;;4987169;28;20432;-75
2022/01/30 10:16:43;;;;;;;2.80;0.50;;;7.60;99.90;;;;;;5003561;28;20890;-74
2022/01/30 10:19:17;;;;;;;6.53;1.23;;;7.60;99.90;;;;;;5020526;28;20479;-75
2022/01/30 10:21:46;;;;;;;0.60;0.20;;;7.60;99.90;;;;;;5002087;28;20483;-74
2022/01/30 10:24:23;;;;;;;0.60;0.23;;;7.60;99.90;;;;;;5002297;28;20479;-74
2022/01/30 10:26:51;;;;;;;0.60;0.10;;;7.60;99.90;;;;;;4998036;28;20441;-74
2022/01/30 10:29:24;;;;;;;0.60;0.10;;;7.60;99.90;;;;;;5003511;28;20448;-73
2022/01/30 10:32:00;;;;;;;1.23;0.67;;;7.60;99.90;;;;;;5004863;28;20811;-74
2022/01/30 10:34:29;;;;;;;9.20;0.77;;;7.70;99.90;;;;;;4995301;28;20532;-74
2022/01/30 10:37:19;;;;;;;0.60;0.10;;;7.70;99.90;;;;;;4995813;28;20445;-74
2022/01/30 10:39:55;;;;;;;0.80;0.50;;;8.30;99.90;;;;;;4994620;28;20915;-73
2022/01/30 10:42:31;;;;;;;2.23;2.03;;;7.80;99.90;;;;;;5004614;28;20483;-74
2022/01/30 10:45:28;;;;;;;0.60;0.10;;;7.80;99.90;;;;;;5013759;28;20946;-75
2022/01/30 10:48:10;;;;;;;1.43;0.53;;;7.90;99.90;;;;;;5014231;28;20466;-76
2022/01/30 10:50:43;;;;;;;0.60;0.20;;;7.90;99.90;;;;;;5014378;28;20838;-74
2022/01/30 10:53:18;;;;;;;0.60;0.10;;;9.50;99.90;;;;;;5002030;28;20470;-74
2022/01/30 10:55:47;;;;;;;0.60;0.40;;;7.90;99.90;;;;;;4987331;28;20562;-74
2022/01/30 10:58:17;;;;;;;0.70;0.20;;;7.90;99.90;;;;;;4999352;28;20810;-73
2022/01/30 11:00:48;;;;;;;0.60;0.10;;;7.90;99.90;;;;;;5004704;28;20466;-73
2022/01/30 11:03:36;;;;;;;0.80;0.30;;;7.90;99.90;;;;;;5014714;28;20545;-73
2022/01/30 11:06:10;;;;;;;0.60;0.20;;;7.90;99.90;;;;;;5006808;28;20452;-74
2022/01/30 11:08:41;;;;;;;0.60;0.20;;;7.90;99.90;;;;;;4990019;28;20460;-74
2022/01/30 11:11:20;;;;;;;0.70;0.47;;;7.90;99.90;;;;;;4985542;28;20468;-74
2022/01/30 11:19:27;;;;;;;1.50;1.40;;;7.80;99.90;;;;;;4994433;28;20520;-75
2022/01/30 11:22:04;;;;;;;0.60;0.10;;;7.70;99.90;;;;;;5002824;28;20459;-74
2022/01/30 11:24:45;;;;;;;4.33;0.97;;;7.70;99.90;;;;;;4995917;28;20471;-75
2022/01/30 11:27:13;;;;;;;0.60;0.20;;;7.80;99.90;;;;;;4994542;28;20444;-72
2022/01/30 11:29:42;;;;;;;0.70;0.47;;;7.80;99.90;;;;;;4992548;28;20527;-74
2022/01/30 11:32:10;;;;;;;1.53;0.77;;;7.70;99.90;;;;;;4993672;28;20448;-76
2022/01/30 11:34:40;;;;;;;0.70;0.53;;;7.80;99.90;;;;;;4998342;28;20481;-78
2022/01/30 11:37:12;;;;;;;5.03;2.17;;;7.80;99.90;;;;;;5046393;23;20494;-79
2022/01/30 11:39:44;;;;;;;0.60;0.30;;;7.80;99.90;;;;;;5023505;28;20475;-71
2022/01/30 11:42:17;;;;;;;0.60;0.20;;;7.90;99.90;;;;;;5033128;28;20438;-77
2022/01/30 11:44:46;;;;;;;4.50;1.80;;;7.80;99.90;;;;;;5032328;28;20453;-72
2022/01/30 11:47:22;;;;;;;0.60;0.20;;;7.90;99.90;;;;;;5031997;28;20996;-71
2022/01/30 11:50:07;;;;;;;0.60;0.10;;;7.80;99.90;;;;;;5032107;28;20441;-71
2022/01/30 11:53:04;;;;;;;0.60;0.10;;;7.80;99.90;;;;;;5031002;28;20441;-71
2022/01/30 11:55:56;;;;;;;3.03;1.17;;;7.70;99.90;;;;;;4992100;28;20602;-74
2022/01/30 11:58:41;;;;;;;3.90;2.20;;;7.70;99.90;;;;;;5027116;28;20463;-72
2022/01/30 12:01:37;;;;;;;0.80;0.57;;;7.80;99.90;;;;;;5016622;28;20458;-74
2022/01/30 12:04:16;;;;;;;0.80;0.30;;;7.80;99.90;;;;;;5031675;28;20493;-72
2022/01/30 12:06:47;;;;;;;0.60;0.20;;;7.90;99.90;;;;;;5029755;28;20480;-72
2022/01/30 12:09:29;;;;;;;3.60;2.30;;;8.00;99.90;;;;;;5030490;28;20446;-70
2022/01/30 12:12:08;;;;;;;0.60;0.10;;;7.90;99.90;;;;;;5029287;28;20875;-75
2022/01/30 12:14:55;;;;;;;0.60;0.10;;;7.90;99.90;;;;;;5030602;28;20847;-72
2022/01/30 12:17:51;;;;;;;0.60;0.10;;;7.90;99.90;;;;;;5027883;28;20460;-72
2022/01/30 12:20:20;;;;;;;0.60;0.10;;;8.00;99.90;;;;;;5031691;28;20974;-72
2022/01/30 12:22:49;;;;;;;0.60;0.10;;;8.00;99.90;;;;;;5031442;28;20478;-73
2022/01/30 12:25:40;;;;;;;0.60;0.10;;;8.00;99.90;;;;;;5031174;28;20447;-72
2022/01/30 12:28:12;;;;;;;0.60;0.20;;;8.00;99.90;;;;;;5020458;28;20447;-72
2022/01/30 12:30:52;;;;;;;0.60;0.10;;;9.00;99.90;;;;;;5012797;28;20937;-73
2022/01/30 12:33:35;;;;;;;1.67;0.87;;;8.00;99.90;;;;;;5014184;28;20432;-71
2022/01/30 12:36:10;;;;;;;0.70;0.57;;;8.00;99.90;;;;;;5013863;28;20521;-71
2022/01/30 12:38:38;;;;;;;1.43;0.47;;;8.00;99.90;;;;;;5014011;28;21150;-73
2022/01/30 12:41:18;;;;;;;0.60;0.10;;;7.80;99.90;;;;;;5014590;28;20977;-71
2022/01/30 12:43:51;;;;;;;0.70;0.43;;;7.70;99.90;;;;;;5029422;28;20477;-71
2022/01/30 12:46:19;;;;;;;0.60;0.10;;;7.70;99.90;;;;;;5015557;28;20827;-71
2022/01/30 12:49:00;;;;;;;0.70;0.20;;;7.70;99.90;;;;;;5016066;28;20440;-70
2022/01/30 12:51:29;;;;;;;2.60;1.03;;;7.80;99.90;;;;;;5016169;28;20443;-71
2022/01/30 12:53:58;;;;;;;0.60;0.13;;;7.80;99.90;;;;;;5018253;28;20482;-71
2022/01/30 12:56:27;;;;;;;3.50;1.60;;;7.90;99.90;;;;;;5017160;28;20471;-70
2022/01/30 12:58:59;;;;;;;4.00;0.43;;;7.90;99.90;;;;;;5040243;28;20446;-73
2022/01/30 13:01:27;;;;;;;6.00;0.70;;;8.00;99.90;;;;;;5033922;28;20500;-70
2022/01/30 13:04:06;;;;;;;0.60;0.10;;;7.90;99.90;;;;;;5043922;28;20481;-71
2022/01/30 13:06:36;;;;;;;0.60;0.30;;;8.00;99.90;;;;;;5038491;28;20475;-70
2022/01/30 13:09:05;;;;;;;0.60;0.10;;;8.00;99.90;;;;;;5034688;28;20453;-72
2022/01/30 13:11:35;;;;;;;3.23;1.37;;;8.00;99.90;;;;;;5028386;28;20454;-71
2022/01/30 13:14:06;;;;;;;1.43;1.33;;;8.00;99.90;;;;;;5034753;28;20846;-73
2022/01/30 13:16:37;;;;;;;0.60;0.10;;;7.90;99.90;;;;;;5035198;28;20827;-72
2022/01/30 13:19:08;;;;;;;0.60;0.10;;;8.00;99.90;;;;;;5019341;28;20550;-72
2022/01/30 13:21:39;;;;;;;1.60;1.13;;;8.00;99.90;;;;;;5033865;28;20633;-73
2022/01/30 13:24:09;;;;;;;9.97;1.50;;;8.00;99.90;;;;;;5034360;28;20479;-72
2022/01/30 13:26:41;;;;;;;0.60;0.20;;;8.00;99.90;;;;;;5034984;28;20966;-74
2022/01/30 13:29:12;;;;;;;0.60;0.30;;;8.00;99.90;;;;;;5034936;28;20442;-72
2022/01/30 13:31:41;;;;;;;0.60;0.10;;;8.00;99.90;;;;;;5033975;28;20458;-72
2022/01/30 13:34:24;;;;;;;0.60;0.20;;;8.10;99.90;;;;;;5034185;28;20821;-73
2022/01/30 13:36:59;;;;;;;0.60;0.10;;;8.20;99.90;;;;;;5033817;28;20493;-73
2022/01/30 13:39:34;;;;;;;5.13;2.00;;;8.20;99.90;;;;;;5034130;28;20447;-71
2022/01/30 13:42:42;;;;;;;2.60;0.87;;;8.10;99.90;;;;;;5027079;28;20450;-72
2022/01/30 13:48:11;;;;;;;0.60;0.10;;;8.00;99.90;;;;;;5042476;28;20446;-71
2022/01/30 13:50:41;;;;;;;0.60;0.10;;;8.10;99.90;;;;;;5033113;28;20564;-73
2022/01/30 13:53:12;;;;;;;1.23;0.57;;;8.00;99.90;;;;;;5033591;28;20439;-74
2022/01/30 13:55:53;;;;;;;0.80;0.40;;;8.10;99.90;;;;;;5033314;28;20446;-73
2022/01/30 13:58:25;;;;;;;7.27;2.10;;;8.10;99.90;;;;;;5032509;28;20472;-73
2022/01/30 14:00:56;;;;;;;14.30;2.60;;;8.10;99.90;;;;;;5036350;28;20446;-73
2022/01/30 14:03:25;;;;;;;4.20;1.33;;;8.10;99.90;;;;;;5029302;28;20454;-72